ADDS METAR Data INFO
IDs: Format: Raw Decoded Include TAF

Data at: 1027 UTC 23 Mar 2017

Region: TOP
KATL 230952Z 09012KT 10SM SCT042 BKN050 12/M01 A3032 RMK AO2 SLP267 T01171006

KBOS 230954Z 32009KT 10SM CLR M07/M20 A3042 RMK AO2 SLP300 T10721200

KBWI 230954Z 02003KT 10SM CLR M03/M16 A3059 RMK AO2 SLP359 T10281156

KCLE 230951Z 16004KT 10SM CLR M07/M11 A3057 RMK AO2 SLP362 T10721111

KCLT 230952Z 05007KT 10SM CLR 04/M08 A3046 RMK AO2 SLP314 T00441083

KCVG 230952Z 08009KT 10SM SCT250 M02/M08 A3042 RMK AO2 SLP308 T10171083

KDCA 230952Z 08006KT 10SM CLR M01/M13 A3060 RMK AO2 SLP361 T10111133

KDEN 230953Z 18018KT 10SM FEW140 FEW220 12/02 A2970 RMK AO2 SLP994 T01220017

KDFW 230953Z 17014KT 10SM FEW011 19/17 A3000 RMK AO2 SLP153 T01940167

KDTW 230953Z 10004KT 10SM FEW150 SCT250 M04/M09 A3053 RMK AO2 SLP346 T10441089 $

KEWR 230951Z 28007KT 260V330 10SM CLR M05/M14 A3054 RMK AO2 SLP340 T10501144

KFLL 230953Z COR 32003KT 10SM BKN075 18/16 A3010 RMK AO2 SLP193 T01830156

KIAD 230952Z 00000KT 10SM CLR M04/M12 A3058 RMK AO2 SLP358 T10441122

KIAH 230953Z 15003KT 7SM MIFG SCT020 18/17 A3011 RMK AO2 SLP195 T01780172

KJFK 230951Z 31007KT 10SM CLR M04/M16 A3054 RMK AO2 SLP341 T10441156

KLAS 230956Z 19005KT 10SM FEW120 SCT170 SCT220 12/M02 A2977 RMK AO2 SLP069 T01221022

KLAX 230953Z 29007KT 10SM FEW070 FEW150 13/09 A3001 RMK AO2 SLP160 T01330094

KLGA 230951Z 30011KT 10SM CLR M03/M14 A3052 RMK AO2 SLP336 T10331139

KMCO 230953Z 02006KT 10SM FEW055 SCT100 20/17 A3015 RMK AO2 SLP209 CONS LTGIC DSNT NE-E CB DSNT NE-E T02000172

KMDW 230953Z 13007KT 10SM BKN095 BKN250 00/M07 A3043 RMK AO2 SLP315 T00001067 $

KMEM 230953Z 10006KT 10SM BKN100 10/M05 A3025 RMK SLPNO T01021049

KMIA 230953Z 28003KT 10SM CLR 19/16 A3011 RMK AO2 SLP195 T01890161 $

KMSP 230953Z 15013KT 10SM OVC070 03/M06 A3019 RMK AO2 SLP231 T00281061

KORD 230951Z 14012KT 10SM OVC090 01/M07 A3041 RMK AO2 SLP304 T00061072

KPDX 230953Z 14006KT 10SM BKN050 07/03 A3014 RMK AO2 SLP204 T00720033

KPHL 230954Z 33006KT 10SM CLR M04/M15 A3059 RMK AO2 SLP360 T10441150

KPHX 230951Z 32012KT 10SM -RA BKN049 OVC065 13/09 A2989 RMK AO2 RAB0857 SLP111 P0000 T01330094

KPIT 230951Z 00000KT 10SM CLR M08/M11 A3053 RMK AO2 SLP363 T10781111

KSAN 230951Z 29012KT 10SM SCT028 BKN035 14/08 A3008 RMK AO2 SLP184 T01440078

KSEA 230953Z 20011KT 10SM FEW036 FEW055 OVC075 06/04 A3008 RMK AO2 SLP194 T00610039

KSFO 230956Z 28013G19KT 10SM FEW019 11/07 A3016 RMK AO2 SLP213 T01060067

KSLC 230954Z 29008KT 5SM -RA BR SCT007 SCT027 OVC033 07/06 A2972 RMK AO2 SLP041 P0014 T00720056

KSTL 231021Z 12012KT 7SM -TSRA BKN055CB OVC080 05/M02 A3030 RMK AO2 TSB21 OCNL LTGCG S TS S MOV SE P0003 T00501022

KTPA 230953Z 02003KT 7SM FEW070 19/17 A3015 RMK AO2 SLP210 T01890172


Page loaded:  10:27 UTC  |   03:27 AM Pacific  |   04:27 AM Mountain  |   05:27 AM Central  |   06:27 AM Eastern

 

ADVISORIES

FORECASTS

FORECASTS

OBSERVATIONS

USER TOOLS

ABOUT US